sensor_id;sensor_type;location;lat;lon;timestamp;P1;durP1;ratioP1;P2;durP2;ratioP2
54937;SDS011;52756;52.826;6.214;2023-03-26T00:01:23;9.98;;;2.08;;
54937;SDS011;52756;52.826;6.214;2023-03-26T00:03:50;7.22;;;1.67;;
54937;SDS011;52756;52.826;6.214;2023-03-26T00:06:22;9.15;;;2.72;;
54937;SDS011;52756;52.826;6.214;2023-03-26T00:08:49;10.23;;;2.17;;
54937;SDS011;52756;52.826;6.214;2023-03-26T00:11:17;8.77;;;2.28;;
54937;SDS011;52756;52.826;6.214;2023-03-26T00:13:45;7.00;;;2.10;;
54937;SDS011;52756;52.826;6.214;2023-03-26T00:16:12;10.20;;;2.30;;
54937;SDS011;52756;52.826;6.214;2023-03-26T00:18:39;11.05;;;2.97;;
54937;SDS011;52756;52.826;6.214;2023-03-26T00:21:06;11.70;;;2.25;;
54937;SDS011;52756;52.826;6.214;2023-03-26T00:23:33;9.88;;;2.15;;
54937;SDS011;52756;52.826;6.214;2023-03-26T00:26:00;13.65;;;2.55;;
54937;SDS011;52756;52.826;6.214;2023-03-26T00:28:27;11.75;;;2.83;;
54937;SDS011;52756;52.826;6.214;2023-03-26T00:31:04;9.45;;;3.08;;
54937;SDS011;52756;52.826;6.214;2023-03-26T00:33:31;10.43;;;2.35;;
54937;SDS011;52756;52.826;6.214;2023-03-26T00:35:58;9.10;;;2.08;;
54937;SDS011;52756;52.826;6.214;2023-03-26T00:38:25;7.53;;;1.98;;
54937;SDS011;52756;52.826;6.214;2023-03-26T00:40:52;7.05;;;1.92;;
54937;SDS011;52756;52.826;6.214;2023-03-26T00:43:19;8.05;;;2.38;;
54937;SDS011;52756;52.826;6.214;2023-03-26T00:45:55;10.98;;;2.00;;
54937;SDS011;52756;52.826;6.214;2023-03-26T00:48:21;7.35;;;1.70;;
54937;SDS011;52756;52.826;6.214;2023-03-26T00:50:47;8.48;;;2.00;;
54937;SDS011;52756;52.826;6.214;2023-03-26T00:53:14;5.78;;;1.80;;
54937;SDS011;52756;52.826;6.214;2023-03-26T00:55:42;7.65;;;2.00;;
54937;SDS011;52756;52.826;6.214;2023-03-26T00:58:09;8.70;;;2.20;;
54937;SDS011;52756;52.826;6.214;2023-03-26T01:00:44;8.80;;;1.52;;
54937;SDS011;52756;52.826;6.214;2023-03-26T01:05:49;8.43;;;2.10;;
54937;SDS011;52756;52.826;6.214;2023-03-26T01:08:24;10.00;;;2.00;;
54937;SDS011;52756;52.826;6.214;2023-03-26T01:10:52;9.50;;;2.00;;
54937;SDS011;52756;52.826;6.214;2023-03-26T01:13:27;10.35;;;2.63;;
54937;SDS011;52756;52.826;6.214;2023-03-26T01:15:55;6.00;;;1.70;;
54937;SDS011;52756;52.826;6.214;2023-03-26T01:18:22;10.85;;;1.88;;
54937;SDS011;52756;52.826;6.214;2023-03-26T01:20:53;6.28;;;1.98;;
54937;SDS011;52756;52.826;6.214;2023-03-26T01:23:23;8.43;;;1.73;;
54937;SDS011;52756;52.826;6.214;2023-03-26T01:29:13;9.45;;;2.30;;
54937;SDS011;52756;52.826;6.214;2023-03-26T01:31:56;8.13;;;1.65;;
54937;SDS011;52756;52.826;6.214;2023-03-26T01:39:58;8.52;;;2.03;;
54937;SDS011;52756;52.826;6.214;2023-03-26T01:42:40;7.70;;;2.10;;
54937;SDS011;52756;52.826;6.214;2023-03-26T01:45:13;11.70;;;2.13;;
54937;SDS011;52756;52.826;6.214;2023-03-26T01:47:45;9.83;;;2.30;;
54937;SDS011;52756;52.826;6.214;2023-03-26T01:50:11;8.13;;;2.10;;
54937;SDS011;52756;52.826;6.214;2023-03-26T01:52:37;8.23;;;1.70;;
54937;SDS011;52756;52.826;6.214;2023-03-26T01:55:03;5.22;;;1.90;;
54937;SDS011;52756;52.826;6.214;2023-03-26T01:57:49;7.32;;;1.80;;
54937;SDS011;52756;52.826;6.214;2023-03-26T02:01:26;6.75;;;1.80;;
54937;SDS011;52756;52.826;6.214;2023-03-26T02:03:30;7.65;;;1.70;;
54937;SDS011;52756;52.826;6.214;2023-03-26T02:09:00;8.13;;;1.38;;
54937;SDS011;52756;52.826;6.214;2023-03-26T02:11:29;7.35;;;1.65;;
54937;SDS011;52756;52.826;6.214;2023-03-26T02:13:55;7.82;;;2.67;;
54937;SDS011;52756;52.826;6.214;2023-03-26T02:16:22;9.60;;;1.92;;
54937;SDS011;52756;52.826;6.214;2023-03-26T02:18:48;9.25;;;2.10;;
54937;SDS011;52756;52.826;6.214;2023-03-26T02:21:20;7.13;;;1.77;;
54937;SDS011;52756;52.826;6.214;2023-03-26T02:23:50;5.18;;;1.45;;
54937;SDS011;52756;52.826;6.214;2023-03-26T02:26:26;4.65;;;1.33;;
54937;SDS011;52756;52.826;6.214;2023-03-26T02:28:54;6.90;;;1.75;;
54937;SDS011;52756;52.826;6.214;2023-03-26T02:31:20;5.60;;;2.13;;
54937;SDS011;52756;52.826;6.214;2023-03-26T02:33:50;7.45;;;2.15;;
54937;SDS011;52756;52.826;6.214;2023-03-26T02:36:16;5.32;;;1.50;;
54937;SDS011;52756;52.826;6.214;2023-03-26T02:38:48;4.75;;;1.40;;
54937;SDS011;52756;52.826;6.214;2023-03-26T02:41:15;8.15;;;1.55;;
54937;SDS011;52756;52.826;6.214;2023-03-26T02:43:41;5.93;;;1.65;;
54937;SDS011;52756;52.826;6.214;2023-03-26T02:46:07;5.72;;;1.48;;
54937;SDS011;52756;52.826;6.214;2023-03-26T02:48:32;3.67;;;1.50;;
54937;SDS011;52756;52.826;6.214;2023-03-26T02:51:02;4.50;;;1.42;;
54937;SDS011;52756;52.826;6.214;2023-03-26T02:53:28;5.00;;;1.40;;
54937;SDS011;52756;52.826;6.214;2023-03-26T02:55:57;4.53;;;1.50;;
54937;SDS011;52756;52.826;6.214;2023-03-26T02:58:24;6.68;;;1.38;;
54937;SDS011;52756;52.826;6.214;2023-03-26T03:00:51;4.90;;;1.77;;
54937;SDS011;52756;52.826;6.214;2023-03-26T03:03:23;7.45;;;1.60;;
54937;SDS011;52756;52.826;6.214;2023-03-26T03:05:50;5.40;;;1.77;;
54937;SDS011;52756;52.826;6.214;2023-03-26T03:08:20;3.22;;;1.40;;
54937;SDS011;52756;52.826;6.214;2023-03-26T03:10:54;4.35;;;1.17;;
54937;SDS011;52756;52.826;6.214;2023-03-26T03:13:27;6.03;;;1.52;;
54937;SDS011;52756;52.826;6.214;2023-03-26T03:15:53;4.53;;;1.55;;
54937;SDS011;52756;52.826;6.214;2023-03-26T03:18:20;4.95;;;1.58;;
54937;SDS011;52756;52.826;6.214;2023-03-26T03:20:46;6.45;;;1.70;;
54937;SDS011;52756;52.826;6.214;2023-03-26T03:23:12;7.40;;;1.70;;
54937;SDS011;52756;52.826;6.214;2023-03-26T03:25:38;5.30;;;1.48;;
54937;SDS011;52756;52.826;6.214;2023-03-26T03:28:05;4.68;;;1.35;;
54937;SDS011;52756;52.826;6.214;2023-03-26T03:30:31;2.25;;;1.13;;
54937;SDS011;52756;52.826;6.214;2023-03-26T03:32:57;3.95;;;1.65;;
54937;SDS011;52756;52.826;6.214;2023-03-26T03:35:24;7.60;;;2.05;;
54937;SDS011;52756;52.826;6.214;2023-03-26T03:37:51;3.83;;;1.42;;
54937;SDS011;52756;52.826;6.214;2023-03-26T03:40:17;6.75;;;1.75;;
54937;SDS011;52756;52.826;6.214;2023-03-26T03:42:44;6.72;;;1.60;;
54937;SDS011;52756;52.826;6.214;2023-03-26T03:45:10;6.00;;;1.80;;
54937;SDS011;52756;52.826;6.214;2023-03-26T03:47:37;5.07;;;1.38;;
54937;SDS011;52756;52.826;6.214;2023-03-26T03:50:03;5.40;;;1.58;;
54937;SDS011;52756;52.826;6.214;2023-03-26T03:52:30;12.15;;;2.55;;
54937;SDS011;52756;52.826;6.214;2023-03-26T03:54:56;5.43;;;2.00;;
54937;SDS011;52756;52.826;6.214;2023-03-26T03:57:24;5.00;;;1.40;;
54937;SDS011;52756;52.826;6.214;2023-03-26T03:59:50;4.22;;;1.27;;
54937;SDS011;52756;52.826;6.214;2023-03-26T04:02:16;3.53;;;1.40;;
54937;SDS011;52756;52.826;6.214;2023-03-26T04:04:51;6.50;;;1.58;;
54937;SDS011;52756;52.826;6.214;2023-03-26T04:07:17;4.93;;;1.40;;
54937;SDS011;52756;52.826;6.214;2023-03-26T04:09:46;7.35;;;1.67;;
54937;SDS011;52756;52.826;6.214;2023-03-26T04:12:12;4.18;;;1.40;;
54937;SDS011;52756;52.826;6.214;2023-03-26T04:14:38;4.63;;;1.45;;
54937;SDS011;52756;52.826;6.214;2023-03-26T04:17:03;7.85;;;1.85;;
54937;SDS011;52756;52.826;6.214;2023-03-26T04:19:29;4.90;;;1.52;;
54937;SDS011;52756;52.826;6.214;2023-03-26T04:21:55;5.47;;;1.85;;
54937;SDS011;52756;52.826;6.214;2023-03-26T04:24:26;8.52;;;1.90;;
54937;SDS011;52756;52.826;6.214;2023-03-26T04:26:53;3.47;;;1.30;;
54937;SDS011;52756;52.826;6.214;2023-03-26T04:29:22;5.85;;;2.05;;
54937;SDS011;52756;52.826;6.214;2023-03-26T04:31:55;5.65;;;1.70;;
54937;SDS011;52756;52.826;6.214;2023-03-26T04:34:23;6.40;;;1.90;;
54937;SDS011;52756;52.826;6.214;2023-03-26T04:36:50;4.43;;;1.50;;
54937;SDS011;52756;52.826;6.214;2023-03-26T04:39:18;3.85;;;1.50;;
54937;SDS011;52756;52.826;6.214;2023-03-26T04:41:46;7.55;;;2.42;;
54937;SDS011;52756;52.826;6.214;2023-03-26T04:44:12;3.47;;;1.48;;
54937;SDS011;52756;52.826;6.214;2023-03-26T04:46:41;3.17;;;1.10;;
54937;SDS011;52756;52.826;6.214;2023-03-26T04:49:07;4.80;;;1.50;;
54937;SDS011;52756;52.826;6.214;2023-03-26T04:51:37;5.22;;;1.38;;
54937;SDS011;52756;52.826;6.214;2023-03-26T04:54:05;3.67;;;1.08;;
54937;SDS011;52756;52.826;6.214;2023-03-26T05:01:50;5.28;;;1.73;;
54937;SDS011;52756;52.826;6.214;2023-03-26T05:04:19;3.17;;;1.38;;
54937;SDS011;52756;52.826;6.214;2023-03-26T05:06:45;5.70;;;1.83;;
54937;SDS011;52756;52.826;6.214;2023-03-26T05:09:11;8.93;;;2.72;;
54937;SDS011;52756;52.826;6.214;2023-03-26T05:11:38;4.43;;;1.60;;
54937;SDS011;52756;52.826;6.214;2023-03-26T05:14:04;5.55;;;1.70;;
54937;SDS011;52756;52.826;6.214;2023-03-26T05:16:30;5.55;;;2.20;;
54937;SDS011;52756;52.826;6.214;2023-03-26T05:18:56;5.07;;;2.88;;
54937;SDS011;52756;52.826;6.214;2023-03-26T05:21:21;6.45;;;1.88;;
54937;SDS011;52756;52.826;6.214;2023-03-26T05:23:47;4.20;;;1.60;;
54937;SDS011;52756;52.826;6.214;2023-03-26T05:26:13;6.65;;;2.20;;
54937;SDS011;52756;52.826;6.214;2023-03-26T05:28:39;5.28;;;2.25;;
54937;SDS011;52756;52.826;6.214;2023-03-26T05:31:05;7.05;;;1.88;;
54937;SDS011;52756;52.826;6.214;2023-03-26T05:33:32;8.25;;;2.50;;
54937;SDS011;52756;52.826;6.214;2023-03-26T05:36:04;10.15;;;3.30;;
54937;SDS011;52756;52.826;6.214;2023-03-26T05:38:33;6.00;;;1.83;;
54937;SDS011;52756;52.826;6.214;2023-03-26T05:41:04;8.10;;;2.70;;
54937;SDS011;52756;52.826;6.214;2023-03-26T05:43:31;5.25;;;1.83;;
54937;SDS011;52756;52.826;6.214;2023-03-26T05:45:58;7.82;;;2.22;;
54937;SDS011;52756;52.826;6.214;2023-03-26T05:48:24;5.57;;;2.40;;
54937;SDS011;52756;52.826;6.214;2023-03-26T05:50:51;5.53;;;2.22;;
54937;SDS011;52756;52.826;6.214;2023-03-26T05:53:19;6.88;;;1.95;;
54937;SDS011;52756;52.826;6.214;2023-03-26T05:55:46;6.50;;;2.53;;
54937;SDS011;52756;52.826;6.214;2023-03-26T05:58:25;4.80;;;2.20;;
54937;SDS011;52756;52.826;6.214;2023-03-26T06:00:59;9.02;;;3.15;;
54937;SDS011;52756;52.826;6.214;2023-03-26T06:03:33;7.50;;;2.72;;
54937;SDS011;52756;52.826;6.214;2023-03-26T06:06:00;8.77;;;2.65;;
54937;SDS011;52756;52.826;6.214;2023-03-26T06:08:28;8.13;;;2.20;;
54937;SDS011;52756;52.826;6.214;2023-03-26T06:10:57;7.93;;;2.33;;
54937;SDS011;52756;52.826;6.214;2023-03-26T06:13:24;6.47;;;2.20;;
54937;SDS011;52756;52.826;6.214;2023-03-26T06:15:50;6.10;;;2.30;;
54937;SDS011;52756;52.826;6.214;2023-03-26T06:18:16;8.93;;;2.20;;
54937;SDS011;52756;52.826;6.214;2023-03-26T06:20:43;10.18;;;2.25;;
54937;SDS011;52756;52.826;6.214;2023-03-26T06:23:09;8.30;;;2.75;;
54937;SDS011;52756;52.826;6.214;2023-03-26T06:25:35;7.63;;;2.42;;
54937;SDS011;52756;52.826;6.214;2023-03-26T06:28:01;6.45;;;2.35;;
54937;SDS011;52756;52.826;6.214;2023-03-26T06:30:27;7.05;;;3.17;;
54937;SDS011;52756;52.826;6.214;2023-03-26T06:32:53;9.98;;;3.67;;
54937;SDS011;52756;52.826;6.214;2023-03-26T06:35:18;8.30;;;2.40;;
54937;SDS011;52756;52.826;6.214;2023-03-26T06:37:44;8.43;;;2.72;;
54937;SDS011;52756;52.826;6.214;2023-03-26T06:40:10;9.65;;;3.15;;
54937;SDS011;52756;52.826;6.214;2023-03-26T06:42:36;10.60;;;2.85;;
54937;SDS011;52756;52.826;6.214;2023-03-26T06:45:02;14.32;;;3.45;;
54937;SDS011;52756;52.826;6.214;2023-03-26T06:47:28;14.63;;;3.58;;
54937;SDS011;52756;52.826;6.214;2023-03-26T06:49:54;9.63;;;2.95;;
54937;SDS011;52756;52.826;6.214;2023-03-26T06:52:19;13.15;;;4.22;;
54937;SDS011;52756;52.826;6.214;2023-03-26T06:54:45;14.55;;;4.43;;
54937;SDS011;52756;52.826;6.214;2023-03-26T06:57:11;18.63;;;4.07;;
54937;SDS011;52756;52.826;6.214;2023-03-26T06:59:37;16.45;;;5.45;;
54937;SDS011;52756;52.826;6.214;2023-03-26T07:02:02;19.50;;;4.68;;
54937;SDS011;52756;52.826;6.214;2023-03-26T07:04:28;17.55;;;3.80;;
54937;SDS011;52756;52.826;6.214;2023-03-26T07:06:54;17.63;;;4.22;;
54937;SDS011;52756;52.826;6.214;2023-03-26T07:09:20;13.68;;;3.40;;
54937;SDS011;52756;52.826;6.214;2023-03-26T07:11:45;14.65;;;3.33;;
54937;SDS011;52756;52.826;6.214;2023-03-26T07:14:11;19.33;;;3.78;;
54937;SDS011;52756;52.826;6.214;2023-03-26T07:16:37;19.10;;;4.85;;
54937;SDS011;52756;52.826;6.214;2023-03-26T07:19:03;14.13;;;2.90;;
54937;SDS011;52756;52.826;6.214;2023-03-26T07:21:28;14.68;;;3.55;;
54937;SDS011;52756;52.826;6.214;2023-03-26T07:23:54;14.27;;;3.40;;
54937;SDS011;52756;52.826;6.214;2023-03-26T07:31:54;12.63;;;2.92;;
54937;SDS011;52756;52.826;6.214;2023-03-26T07:39:53;22.70;;;4.28;;
54937;SDS011;52756;52.826;6.214;2023-03-26T07:47:58;14.70;;;3.42;;
54937;SDS011;52756;52.826;6.214;2023-03-26T07:50:24;13.82;;;3.13;;
54937;SDS011;52756;52.826;6.214;2023-03-26T07:52:50;17.83;;;3.05;;
54937;SDS011;52756;52.826;6.214;2023-03-26T07:55:16;13.88;;;3.03;;
54937;SDS011;52756;52.826;6.214;2023-03-26T08:00:51;18.95;;;4.18;;
54937;SDS011;52756;52.826;6.214;2023-03-26T08:11:23;9.75;;;2.08;;
54937;SDS011;52756;52.826;6.214;2023-03-26T08:22:12;14.18;;;2.58;;
54937;SDS011;52756;52.826;6.214;2023-03-26T08:27:30;16.80;;;3.58;;
54937;SDS011;52756;52.826;6.214;2023-03-26T08:30:16;12.13;;;3.60;;
54937;SDS011;52756;52.826;6.214;2023-03-26T08:32:56;9.30;;;2.17;;
54937;SDS011;52756;52.826;6.214;2023-03-26T08:35:25;17.08;;;2.70;;
54937;SDS011;52756;52.826;6.214;2023-03-26T08:37:51;9.63;;;2.65;;
54937;SDS011;52756;52.826;6.214;2023-03-26T08:43:36;13.07;;;2.85;;
54937;SDS011;52756;52.826;6.214;2023-03-26T09:12:17;11.45;;;2.83;;
54937;SDS011;52756;52.826;6.214;2023-03-26T09:26:27;14.05;;;3.05;;
54937;SDS011;52756;52.826;6.214;2023-03-26T09:29:52;20.95;;;4.18;;
54937;SDS011;52756;52.826;6.214;2023-03-26T09:35:17;16.67;;;2.80;;
54937;SDS011;52756;52.826;6.214;2023-03-26T09:37:41;15.25;;;2.65;;
54937;SDS011;52756;52.826;6.214;2023-03-26T09:40:17;11.73;;;2.95;;
54937;SDS011;52756;52.826;6.214;2023-03-26T09:50:52;18.77;;;3.63;;
54937;SDS011;52756;52.826;6.214;2023-03-26T09:59:09;19.00;;;3.53;;
54937;SDS011;52756;52.826;6.214;2023-03-26T10:02:15;13.48;;;2.92;;
54937;SDS011;52756;52.826;6.214;2023-03-26T10:08:05;12.77;;;2.85;;
54937;SDS011;52756;52.826;6.214;2023-03-26T10:11:06;17.05;;;3.75;;
54937;SDS011;52756;52.826;6.214;2023-03-26T10:22:23;15.38;;;2.90;;
54937;SDS011;52756;52.826;6.214;2023-03-26T10:36:29;14.45;;;3.13;;
54937;SDS011;52756;52.826;6.214;2023-03-26T10:41:55;10.48;;;2.65;;
54937;SDS011;52756;52.826;6.214;2023-03-26T10:47:51;15.98;;;2.97;;
54937;SDS011;52756;52.826;6.214;2023-03-26T10:55:38;11.18;;;2.75;;
54937;SDS011;52756;52.826;6.214;2023-03-26T10:58:14;11.40;;;2.08;;
54937;SDS011;52756;52.826;6.214;2023-03-26T11:00:58;15.80;;;3.55;;
54937;SDS011;52756;52.826;6.214;2023-03-26T11:03:46;14.30;;;2.20;;
54937;SDS011;52756;52.826;6.214;2023-03-26T11:09:02;10.80;;;2.33;;
54937;SDS011;52756;52.826;6.214;2023-03-26T11:17:09;11.00;;;1.98;;
54937;SDS011;52756;52.826;6.214;2023-03-26T11:19:42;10.23;;;2.25;;
54937;SDS011;52756;52.826;6.214;2023-03-26T11:27:58;13.07;;;2.20;;
54937;SDS011;52756;52.826;6.214;2023-03-26T11:30:47;14.95;;;3.22;;
54937;SDS011;52756;52.826;6.214;2023-03-26T11:33:31;7.95;;;1.80;;
54937;SDS011;52756;52.826;6.214;2023-03-26T11:36:02;12.48;;;3.20;;
54937;SDS011;52756;52.826;6.214;2023-03-26T11:41:22;15.10;;;2.97;;
54937;SDS011;52756;52.826;6.214;2023-03-26T11:43:58;13.32;;;2.95;;
54937;SDS011;52756;52.826;6.214;2023-03-26T11:46:28;10.95;;;2.15;;
54937;SDS011;52756;52.826;6.214;2023-03-26T11:48:56;10.35;;;2.53;;
54937;SDS011;52756;52.826;6.214;2023-03-26T11:53:53;11.57;;;2.00;;
54937;SDS011;52756;52.826;6.214;2023-03-26T11:59:00;8.02;;;2.08;;
54937;SDS011;52756;52.826;6.214;2023-03-26T12:04:25;7.22;;;1.90;;
54937;SDS011;52756;52.826;6.214;2023-03-26T12:09:20;8.48;;;1.73;;
54937;SDS011;52756;52.826;6.214;2023-03-26T12:11:47;14.57;;;2.90;;
54937;SDS011;52756;52.826;6.214;2023-03-26T12:14:17;12.88;;;2.92;;
54937;SDS011;52756;52.826;6.214;2023-03-26T12:19:41;10.57;;;2.70;;
54937;SDS011;52756;52.826;6.214;2023-03-26T12:27:42;13.38;;;2.60;;
54937;SDS011;52756;52.826;6.214;2023-03-26T12:32:44;15.55;;;3.50;;
54937;SDS011;52756;52.826;6.214;2023-03-26T12:35:15;12.77;;;3.00;;
54937;SDS011;52756;52.826;6.214;2023-03-26T12:37:44;14.27;;;2.75;;
54937;SDS011;52756;52.826;6.214;2023-03-26T12:40:27;10.55;;;2.30;;
54937;SDS011;52756;52.826;6.214;2023-03-26T12:42:59;9.18;;;2.45;;
54937;SDS011;52756;52.826;6.214;2023-03-26T12:45:30;10.57;;;2.38;;
54937;SDS011;52756;52.826;6.214;2023-03-26T12:48:02;15.18;;;3.00;;
54937;SDS011;52756;52.826;6.214;2023-03-26T12:50:31;12.27;;;2.47;;
54937;SDS011;52756;52.826;6.214;2023-03-26T12:59:00;10.07;;;2.33;;
54937;SDS011;52756;52.826;6.214;2023-03-26T13:07:16;11.75;;;1.98;;
54937;SDS011;52756;52.826;6.214;2023-03-26T13:09:54;14.05;;;2.42;;
54937;SDS011;52756;52.826;6.214;2023-03-26T13:12:40;12.70;;;2.10;;
54937;SDS011;52756;52.826;6.214;2023-03-26T13:15:31;9.00;;;1.80;;
54937;SDS011;52756;52.826;6.214;2023-03-26T13:21:05;9.88;;;3.38;;
54937;SDS011;52756;52.826;6.214;2023-03-26T13:36:44;8.95;;;2.20;;
54937;SDS011;52756;52.826;6.214;2023-03-26T13:39:36;7.22;;;2.00;;
54937;SDS011;52756;52.826;6.214;2023-03-26T13:47:41;14.10;;;2.15;;
54937;SDS011;52756;52.826;6.214;2023-03-26T13:50:26;13.00;;;3.38;;
54937;SDS011;52756;52.826;6.214;2023-03-26T13:53:08;13.93;;;3.65;;
54937;SDS011;52756;52.826;6.214;2023-03-26T13:55:52;11.88;;;2.28;;
54937;SDS011;52756;52.826;6.214;2023-03-26T14:00:57;11.80;;;2.28;;
54937;SDS011;52756;52.826;6.214;2023-03-26T14:06:00;10.30;;;2.47;;
54937;SDS011;52756;52.826;6.214;2023-03-26T14:08:40;10.05;;;1.85;;
54937;SDS011;52756;52.826;6.214;2023-03-26T14:11:12;9.07;;;2.40;;
54937;SDS011;52756;52.826;6.214;2023-03-26T14:16:34;7.50;;;1.65;;
54937;SDS011;52756;52.826;6.214;2023-03-26T14:22:22;7.15;;;1.88;;
54937;SDS011;52756;52.826;6.214;2023-03-26T14:35:48;13.40;;;3.17;;
54937;SDS011;52756;52.826;6.214;2023-03-26T14:41:23;10.10;;;1.80;;
54937;SDS011;52756;52.826;6.214;2023-03-26T14:43:59;10.80;;;2.15;;
54937;SDS011;52756;52.826;6.214;2023-03-26T14:46:42;10.50;;;2.10;;
54937;SDS011;52756;52.826;6.214;2023-03-26T14:52:36;12.98;;;2.53;;
54937;SDS011;52756;52.826;6.214;2023-03-26T15:18:05;7.88;;;1.60;;
54937;SDS011;52756;52.826;6.214;2023-03-26T15:29:15;9.50;;;1.95;;
54937;SDS011;52756;52.826;6.214;2023-03-26T15:35:00;14.02;;;2.70;;
54937;SDS011;52756;52.826;6.214;2023-03-26T16:04:21;8.85;;;1.55;;
54937;SDS011;52756;52.826;6.214;2023-03-26T16:15:56;10.38;;;1.73;;
54937;SDS011;52756;52.826;6.214;2023-03-26T16:26:38;9.32;;;1.90;;
54937;SDS011;52756;52.826;6.214;2023-03-26T16:34:27;7.43;;;1.65;;
54937;SDS011;52756;52.826;6.214;2023-03-26T16:37:04;9.27;;;2.60;;
54937;SDS011;52756;52.826;6.214;2023-03-26T16:39:50;11.18;;;2.25;;
54937;SDS011;52756;52.826;6.214;2023-03-26T16:42:34;8.65;;;1.55;;
54937;SDS011;52756;52.826;6.214;2023-03-26T16:47:49;13.00;;;2.60;;
54937;SDS011;52756;52.826;6.214;2023-03-26T16:50:48;12.00;;;2.08;;
54937;SDS011;52756;52.826;6.214;2023-03-26T16:53:59;7.93;;;2.10;;
54937;SDS011;52756;52.826;6.214;2023-03-26T16:56:29;12.80;;;1.60;;
54937;SDS011;52756;52.826;6.214;2023-03-26T16:59:07;7.60;;;1.77;;
54937;SDS011;52756;52.826;6.214;2023-03-26T17:04:16;9.35;;;1.45;;
54937;SDS011;52756;52.826;6.214;2023-03-26T17:17:50;7.72;;;1.67;;
54937;SDS011;52756;52.826;6.214;2023-03-26T17:26:19;8.65;;;1.70;;
54937;SDS011;52756;52.826;6.214;2023-03-26T17:31:48;9.57;;;2.40;;
54937;SDS011;52756;52.826;6.214;2023-03-26T17:42:17;11.23;;;2.60;;
54937;SDS011;52756;52.826;6.214;2023-03-26T17:47:37;8.63;;;1.83;;
54937;SDS011;52756;52.826;6.214;2023-03-26T17:50:17;11.32;;;1.80;;
54937;SDS011;52756;52.826;6.214;2023-03-26T17:55:36;9.88;;;1.88;;
54937;SDS011;52756;52.826;6.214;2023-03-26T17:58:03;8.25;;;2.05;;
54937;SDS011;52756;52.826;6.214;2023-03-26T18:05:47;6.68;;;1.55;;
54937;SDS011;52756;52.826;6.214;2023-03-26T18:08:31;7.85;;;1.50;;
54937;SDS011;52756;52.826;6.214;2023-03-26T18:11:32;7.13;;;1.92;;
54937;SDS011;52756;52.826;6.214;2023-03-26T18:16:58;8.45;;;1.83;;
54937;SDS011;52756;52.826;6.214;2023-03-26T18:19:25;6.10;;;1.58;;
54937;SDS011;52756;52.826;6.214;2023-03-26T18:21:56;7.97;;;1.45;;
54937;SDS011;52756;52.826;6.214;2023-03-26T18:24:31;8.68;;;2.30;;
54937;SDS011;52756;52.826;6.214;2023-03-26T18:27:02;5.90;;;1.55;;
54937;SDS011;52756;52.826;6.214;2023-03-26T18:30:22;6.25;;;1.40;;
54937;SDS011;52756;52.826;6.214;2023-03-26T18:32:35;6.72;;;1.50;;
54937;SDS011;52756;52.826;6.214;2023-03-26T18:35:37;6.32;;;1.27;;
54937;SDS011;52756;52.826;6.214;2023-03-26T18:38:17;9.48;;;1.67;;
54937;SDS011;52756;52.826;6.214;2023-03-26T18:40:46;8.55;;;1.83;;
54937;SDS011;52756;52.826;6.214;2023-03-26T18:43:15;8.35;;;1.60;;
54937;SDS011;52756;52.826;6.214;2023-03-26T18:45:43;8.57;;;1.65;;
54937;SDS011;52756;52.826;6.214;2023-03-26T18:48:22;9.45;;;1.75;;
54937;SDS011;52756;52.826;6.214;2023-03-26T18:50:53;11.50;;;1.80;;
54937;SDS011;52756;52.826;6.214;2023-03-26T18:53:24;10.45;;;1.52;;
54937;SDS011;52756;52.826;6.214;2023-03-26T18:55:55;9.40;;;1.80;;
54937;SDS011;52756;52.826;6.214;2023-03-26T18:58:23;13.98;;;2.10;;
54937;SDS011;52756;52.826;6.214;2023-03-26T19:00:51;8.02;;;1.85;;
54937;SDS011;52756;52.826;6.214;2023-03-26T19:03:21;9.27;;;1.50;;
54937;SDS011;52756;52.826;6.214;2023-03-26T19:05:49;6.32;;;1.70;;
54937;SDS011;52756;52.826;6.214;2023-03-26T19:08:16;7.30;;;1.90;;
54937;SDS011;52756;52.826;6.214;2023-03-26T19:10:44;8.95;;;1.63;;
54937;SDS011;52756;52.826;6.214;2023-03-26T19:13:15;7.18;;;1.92;;
54937;SDS011;52756;52.826;6.214;2023-03-26T19:15:44;6.82;;;1.30;;
54937;SDS011;52756;52.826;6.214;2023-03-26T19:18:14;7.07;;;1.55;;
54937;SDS011;52756;52.826;6.214;2023-03-26T19:23:24;6.07;;;1.35;;
54937;SDS011;52756;52.826;6.214;2023-03-26T19:25:55;5.60;;;1.30;;
54937;SDS011;52756;52.826;6.214;2023-03-26T19:28:25;7.38;;;1.65;;
54937;SDS011;52756;52.826;6.214;2023-03-26T19:30:54;7.95;;;1.63;;
54937;SDS011;52756;52.826;6.214;2023-03-26T19:33:24;5.75;;;1.40;;
54937;SDS011;52756;52.826;6.214;2023-03-26T19:38:36;5.95;;;1.30;;
54937;SDS011;52756;52.826;6.214;2023-03-26T19:41:25;8.65;;;1.50;;
54937;SDS011;52756;52.826;6.214;2023-03-26T19:43:55;9.32;;;1.45;;
54937;SDS011;52756;52.826;6.214;2023-03-26T19:46:24;8.02;;;1.50;;
54937;SDS011;52756;52.826;6.214;2023-03-26T19:48:52;7.60;;;1.58;;
54937;SDS011;52756;52.826;6.214;2023-03-26T19:51:33;7.03;;;1.25;;
54937;SDS011;52756;52.826;6.214;2023-03-26T19:54:01;10.25;;;1.90;;
54937;SDS011;52756;52.826;6.214;2023-03-26T19:56:35;7.03;;;1.52;;
54937;SDS011;52756;52.826;6.214;2023-03-26T19:59:01;8.23;;;1.80;;
54937;SDS011;52756;52.826;6.214;2023-03-26T20:01:28;9.80;;;1.73;;
54937;SDS011;52756;52.826;6.214;2023-03-26T20:03:57;7.57;;;1.52;;
54937;SDS011;52756;52.826;6.214;2023-03-26T20:06:25;6.88;;;1.70;;
54937;SDS011;52756;52.826;6.214;2023-03-26T20:08:55;7.22;;;1.95;;
54937;SDS011;52756;52.826;6.214;2023-03-26T20:11:27;10.82;;;1.85;;
54937;SDS011;52756;52.826;6.214;2023-03-26T20:14:01;10.18;;;1.60;;
54937;SDS011;52756;52.826;6.214;2023-03-26T20:16:42;7.90;;;2.22;;
54937;SDS011;52756;52.826;6.214;2023-03-26T20:19:08;12.23;;;2.30;;
54937;SDS011;52756;52.826;6.214;2023-03-26T20:21:35;9.38;;;2.35;;
54937;SDS011;52756;52.826;6.214;2023-03-26T20:24:07;8.27;;;2.33;;
54937;SDS011;52756;52.826;6.214;2023-03-26T20:26:38;8.90;;;1.98;;
54937;SDS011;52756;52.826;6.214;2023-03-26T20:29:04;9.52;;;2.47;;
54937;SDS011;52756;52.826;6.214;2023-03-26T20:31:30;9.95;;;3.13;;
54937;SDS011;52756;52.826;6.214;2023-03-26T20:33:56;9.45;;;2.22;;
54937;SDS011;52756;52.826;6.214;2023-03-26T20:36:22;8.05;;;2.80;;
54937;SDS011;52756;52.826;6.214;2023-03-26T20:38:48;9.38;;;2.85;;
54937;SDS011;52756;52.826;6.214;2023-03-26T20:41:18;8.13;;;2.28;;
54937;SDS011;52756;52.826;6.214;2023-03-26T20:43:47;8.68;;;2.03;;
54937;SDS011;52756;52.826;6.214;2023-03-26T20:46:17;6.88;;;1.85;;
54937;SDS011;52756;52.826;6.214;2023-03-26T20:48:45;5.68;;;1.13;;
54937;SDS011;52756;52.826;6.214;2023-03-26T20:51:11;10.20;;;1.60;;
54937;SDS011;52756;52.826;6.214;2023-03-26T20:53:42;7.78;;;1.60;;
54937;SDS011;52756;52.826;6.214;2023-03-26T20:56:12;8.55;;;2.15;;
54937;SDS011;52756;52.826;6.214;2023-03-26T20:58:40;8.30;;;1.50;;
54937;SDS011;52756;52.826;6.214;2023-03-26T21:01:10;7.82;;;1.60;;
54937;SDS011;52756;52.826;6.214;2023-03-26T21:03:37;7.30;;;1.77;;
54937;SDS011;52756;52.826;6.214;2023-03-26T21:06:04;10.20;;;2.15;;
54937;SDS011;52756;52.826;6.214;2023-03-26T21:08:40;9.15;;;1.58;;
54937;SDS011;52756;52.826;6.214;2023-03-26T21:14:09;9.73;;;2.70;;
54937;SDS011;52756;52.826;6.214;2023-03-26T21:16:42;15.10;;;7.00;;
54937;SDS011;52756;52.826;6.214;2023-03-26T21:19:08;10.65;;;3.65;;
54937;SDS011;52756;52.826;6.214;2023-03-26T21:24:56;7.32;;;2.58;;
54937;SDS011;52756;52.826;6.214;2023-03-26T21:27:08;10.98;;;3.25;;
54937;SDS011;52756;52.826;6.214;2023-03-26T21:30:01;8.18;;;2.30;;
54937;SDS011;52756;52.826;6.214;2023-03-26T21:32:30;7.07;;;2.03;;
54937;SDS011;52756;52.826;6.214;2023-03-26T21:34:56;7.50;;;2.30;;
54937;SDS011;52756;52.826;6.214;2023-03-26T21:37:22;7.78;;;2.15;;
54937;SDS011;52756;52.826;6.214;2023-03-26T21:39:48;8.82;;;2.42;;